Time;durP1;ratioP1;P1;durP2;ratioP2;P2;SDS_P1;SDS_P2;PMS_P1;PMS_P2;Temp;Humidity;BMP_temperature;BMP_pressure;BME280_temperature;BME280_humidity;BME280_pressure;Samples;Min_cycle;Max_cycle;Signal;HPM_P1;HPM_P2
2023/01/18 00:01:20;;;;;;;17.90;10.90;;;;;;;0.14;78.11;96220.09;5043398;28;20040;-79
2023/01/18 00:03:46;;;;;;;28.33;10.85;;;;;;;-0.77;77.43;96211.16;5044120;28;20059;-79
2023/01/18 00:06:11;;;;;;;21.23;11.45;;;;;;;0.22;78.96;96222.31;5067657;28;20060;-79
2023/01/18 00:08:38;;;;;;;22.65;11.15;;;;;;;0.58;77.48;96216.34;5042207;28;20028;-79
2023/01/18 00:11:09;;;;;;;24.52;11.45;;;;;;;0.33;77.76;96210.88;5042752;28;20463;-79
2023/01/18 00:13:35;;;;;;;17.50;10.60;;;;;;;0.72;76.38;96213.03;5060886;28;20032;-79
2023/01/18 00:16:06;;;;;;;18.13;10.02;;;;;;;-0.03;76.81;96221.00;5064951;28;20078;-79
2023/01/18 00:18:31;;;;;;;15.57;9.95;;;;;;;0.15;75.88;96224.31;5063325;28;20033;-79
2023/01/18 00:21:01;;;;;;;26.35;10.68;;;;;;;-0.42;77.44;96219.50;5064377;28;20039;-79
2023/01/18 00:23:27;;;;;;;19.05;11.48;;;;;;;0.31;78.15;96221.59;5065437;28;20555;-79
2023/01/18 00:25:53;;;;;;;17.33;10.52;;;;;;;-0.09;78.73;96216.72;5075079;28;20048;-79
2023/01/18 00:28:21;;;;;;;24.83;13.55;;;;;;;-0.87;77.58;96231.97;5060271;28;20556;-79
2023/01/18 00:30:47;;;;;;;18.75;10.63;;;;;;;-1.82;79.95;96226.00;5066749;28;20032;-79
2023/01/18 00:33:12;;;;;;;22.73;11.25;;;;;;;-1.80;80.69;96224.75;5066788;28;20032;-79
2023/01/18 00:35:38;;;;;;;21.17;11.60;;;;;;;-1.52;80.13;96227.31;5043174;28;20037;-79
2023/01/18 00:38:03;;;;;;;22.55;10.30;;;;;;;-1.02;81.90;96229.13;5062101;28;20086;-79
2023/01/18 00:40:29;;;;;;;18.85;9.48;;;;;;;0.07;79.17;96230.00;5047663;28;20060;-79
2023/01/18 00:45:39;;;;;;;32.47;16.77;;;;;;;-0.67;77.28;96232.25;5051656;28;20036;-79
2023/01/18 00:48:05;;;;;;;23.38;11.45;;;;;;;-1.38;79.70;96237.47;5046108;28;20191;-79
2023/01/18 00:50:31;;;;;;;19.00;11.00;;;;;;;-0.06;79.69;96237.22;5046490;28;20127;-79
2023/01/18 00:52:58;;;;;;;17.60;10.82;;;;;;;-0.49;79.54;96236.41;5049677;28;20203;-79
2023/01/18 00:55:24;;;;;;;18.35;10.38;;;;;;;0.18;78.66;96231.69;5069418;28;20111;-79
2023/01/18 00:57:50;;;;;;;22.20;11.35;;;;;;;-0.14;77.09;96228.97;5058213;28;20033;-79
2023/01/18 01:00:17;;;;;;;29.48;12.02;;;;;;;-1.04;77.57;96234.59;5069289;28;20052;-79
2023/01/18 01:02:43;;;;;;;21.65;10.85;;;;;;;-1.27;79.28;96240.03;5043743;28;20208;-79
2023/01/18 01:08:17;;;;;;;16.75;10.77;;;;;;;0.39;77.16;96233.47;5053209;28;20519;-79
2023/01/18 01:10:48;;;;;;;18.23;10.68;;;;;;;0.48;76.92;96227.53;5051532;28;20017;-79
2023/01/18 01:27:06;;;;;;;15.38;8.75;;;;;;;-0.47;76.33;96252.69;5056394;28;20051;-79
2023/01/18 01:29:32;;;;;;;17.70;9.75;;;;;;;-0.30;79.03;96246.34;5056264;28;20339;-79
2023/01/18 01:31:57;;;;;;;19.65;9.73;;;;;;;0.26;77.49;96255.66;5058622;28;20025;-79
2023/01/18 01:34:23;;;;;;;14.27;8.27;;;;;;;-1.08;77.54;96253.66;5047121;28;20419;-79
2023/01/18 01:36:49;;;;;;;19.95;9.68;;;;;;;-0.50;78.41;96258.41;5065326;28;20052;-79
2023/01/18 01:39:15;;;;;;;17.83;8.60;;;;;;;-1.00;78.76;96261.88;5042950;28;20463;-79
2023/01/18 01:41:40;;;;;;;21.88;9.57;;;;;;;-1.58;78.73;96259.66;5049796;28;20029;-79
2023/01/18 01:44:23;;;;;;;16.35;8.95;;;;;;;-1.58;80.28;96267.50;5048145;28;20033;-79
2023/01/18 01:46:56;;;;;;;20.77;9.13;;;;;;;-0.17;79.59;96266.16;5064871;28;20473;-79
2023/01/18 01:49:35;;;;;;;18.25;9.18;;;;;;;-1.04;77.65;96275.69;5053592;28;20036;-79
2023/01/18 01:52:04;;;;;;;17.35;9.57;;;;;;;-2.14;80.94;96270.06;5045328;28;20020;-78
2023/01/18 01:54:35;;;;;;;18.17;9.07;;;;;;;-0.76;81.60;96258.06;5065391;28;20033;-79
2023/01/18 01:57:24;;;;;;;16.35;8.48;;;;;;;-0.05;79.45;96278.13;5048822;28;20036;-79
2023/01/18 02:00:02;;;;;;;13.73;7.90;;;;;;;0.37;77.68;96273.06;5063650;28;20033;-79
2023/01/18 02:02:30;;;;;;;16.50;9.15;;;;;;;0.37;76.53;96269.66;5029010;28;20032;-79
2023/01/18 02:04:58;;;;;;;15.23;7.38;;;;;;;0.44;76.53;96276.28;5060887;28;20097;-79
2023/01/18 02:07:27;;;;;;;13.73;7.97;;;;;;;0.55;75.93;96279.78;5035307;28;20480;-79
2023/01/18 02:09:55;;;;;;;12.07;7.55;;;;;;;-0.78;77.33;96290.75;5058391;28;20495;-79
2023/01/18 02:12:20;;;;;;;16.15;7.50;;;;;;;-0.19;77.96;96271.66;5054852;28;20032;-79
2023/01/18 02:14:46;;;;;;;17.60;8.93;;;;;;;-1.55;79.21;96298.38;5060759;28;20048;-79
2023/01/18 02:17:32;;;;;;;20.70;9.10;;;;;;;-1.27;78.27;96296.78;5045441;28;20028;-79
2023/01/18 02:20:28;;;;;;;18.95;9.35;;;;;;;-0.94;77.59;96302.81;5042712;28;20041;-79
2023/01/18 02:23:15;;;;;;;17.90;8.73;;;;;;;-0.45;79.84;96295.13;5061681;28;20029;-79
2023/01/18 02:25:46;;;;;;;16.55;7.85;;;;;;;-0.84;78.88;96296.94;5065459;28;20028;-79
2023/01/18 02:28:19;;;;;;;21.95;10.15;;;;;;;-1.09;78.52;96305.19;5062731;28;20055;-79
2023/01/18 02:30:57;;;;;;;20.15;10.20;;;;;;;-1.69;79.38;96311.97;5061459;28;20549;-78
2023/01/18 02:33:51;;;;;;;15.75;8.52;;;;;;;-1.74;80.41;96310.06;5057791;28;20480;-78
2023/01/18 02:36:27;;;;;;;18.13;9.95;;;;;;;-1.53;79.66;96312.00;5059543;28;20093;-78
2023/01/18 02:38:58;;;;;;;13.20;8.27;;;;;;;-1.77;81.04;96312.38;5062013;28;20067;-78
2023/01/18 02:47:23;;;;;;;15.90;8.00;;;;;;;-1.16;78.50;96316.84;5067790;28;20116;-79
2023/01/18 02:49:48;;;;;;;17.25;9.32;;;;;;;-1.14;78.82;96323.44;5027790;28;20481;-78
2023/01/18 02:52:46;;;;;;;17.85;9.50;;;;;;;-1.11;78.38;96309.06;5057955;28;20048;-79
2023/01/18 02:55:36;;;;;;;21.27;8.90;;;;;;;-0.11;78.91;96322.88;5014289;28;20040;-79
2023/01/18 02:58:09;;;;;;;15.35;9.15;;;;;;;0.01;77.72;96299.94;5057402;28;20531;-79
2023/01/18 03:00:39;;;;;;;18.15;10.15;;;;;;;-0.72;77.17;96312.56;5043079;28;20024;-79
2023/01/18 03:03:09;;;;;;;15.80;8.95;;;;;;;0.05;77.62;96306.28;5064599;28;20056;-79
2023/01/18 03:05:37;;;;;;;15.30;8.60;;;;;;;0.10;77.84;96310.78;5050137;28;20035;-79
2023/01/18 03:08:41;;;;;;;17.05;9.48;;;;;;;0.49;76.28;96310.44;5047200;28;20496;-79
2023/01/18 03:11:19;;;;;;;16.15;8.38;;;;;;;0.06;75.49;96310.50;5045377;28;20178;-79
2023/01/18 03:13:54;;;;;;;16.10;9.43;;;;;;;0.47;75.69;96312.53;5051313;28;20391;-79
2023/01/18 03:16:26;;;;;;;17.42;10.70;;;;;;;-0.26;76.65;96304.31;5063713;28;20032;-79
2023/01/18 03:19:03;;;;;;;15.60;9.82;;;;;;;-0.14;78.01;96316.28;5070492;28;20115;-79
2023/01/18 03:21:47;;;;;;;22.90;11.30;;;;;;;-0.60;76.74;96315.88;5046792;28;20047;-79
2023/01/18 03:24:15;;;;;;;23.08;12.93;;;;;;;-0.44;77.05;96310.63;5068268;28;20059;-79
2023/01/18 03:26:50;;;;;;;23.00;12.82;;;;;;;-1.24;78.33;96311.97;5073842;28;20764;-79
2023/01/18 03:34:58;;;;;;;26.27;13.52;;;;;;;-1.37;79.47;96328.78;5061927;28;20375;-79
2023/01/18 03:37:32;;;;;;;21.92;13.35;;;;;;;-1.76;80.20;96319.97;5044414;28;20029;-78
2023/01/18 03:40:04;;;;;;;27.83;14.52;;;;;;;-1.97;81.33;96310.16;5034778;28;20028;-78
2023/01/18 03:42:41;;;;;;;23.60;13.30;;;;;;;-1.81;81.06;96314.63;5078836;28;20028;-79
2023/01/18 03:45:32;;;;;;;27.60;14.52;;;;;;;-1.84;81.05;96322.97;5048264;28;20028;-78
2023/01/18 03:47:58;;;;;;;29.60;14.82;;;;;;;-2.20;81.81;96338.13;5049136;28;20186;-79
2023/01/18 03:50:52;;;;;;;29.52;14.05;;;;;;;-2.58;83.04;96336.81;5040764;28;20041;-79
2023/01/18 03:53:32;;;;;;;23.48;13.10;;;;;;;-2.76;83.28;96334.31;5045617;28;20032;-79
2023/01/18 03:56:03;;;;;;;23.92;13.73;;;;;;;-2.46;83.01;96323.75;5065356;28;20023;-79
2023/01/18 03:58:34;;;;;;;24.05;12.05;;;;;;;-2.23;82.31;96343.81;5056788;28;20040;-78
2023/01/18 04:01:02;;;;;;;26.15;14.27;;;;;;;-2.39;81.41;96340.91;5061013;28;20396;-79
2023/01/18 04:03:32;;;;;;;21.55;10.95;;;;;;;-2.37;81.69;96354.50;5039601;28;20036;-78
2023/01/18 04:06:00;;;;;;;25.48;13.68;;;;;;;-2.34;81.59;96354.03;5033115;28;20037;-78
2023/01/18 04:08:25;;;;;;;20.23;14.18;;;;;;;-2.73;81.88;96340.91;5060592;28;20166;-78
2023/01/18 04:10:50;;;;;;;28.10;14.65;;;;;;;-2.82;82.68;96350.88;5014297;28;20111;-78
2023/01/18 04:13:16;;;;;;;23.67;12.15;;;;;;;-2.70;82.89;96356.09;5043563;28;20311;-78
2023/01/18 04:15:41;;;;;;;20.73;11.52;;;;;;;-2.54;82.45;96348.41;5036115;28;20387;-78
2023/01/18 04:18:06;;;;;;;18.92;9.90;;;;;;;-2.08;82.07;96352.78;5017693;28;20068;-78
2023/01/18 04:20:32;;;;;;;29.50;13.30;;;;;;;-2.36;80.96;96369.16;5043988;28;20037;-78
2023/01/18 04:22:57;;;;;;;21.52;12.30;;;;;;;-2.88;82.75;96371.84;5065947;28;20547;-78
2023/01/18 04:25:23;;;;;;;28.80;13.10;;;;;;;-2.97;83.44;96373.19;5048938;28;20035;-78
2023/01/18 04:27:48;;;;;;;25.02;10.95;;;;;;;-1.80;84.09;96357.25;5031539;28;20060;-78
2023/01/18 04:30:14;;;;;;;17.67;10.43;;;;;;;-2.03;81.58;96365.94;5048227;28;20098;-79
2023/01/18 04:32:41;;;;;;;20.27;10.35;;;;;;;-2.24;81.46;96376.97;5049495;28;20024;-78
2023/01/18 04:35:07;;;;;;;18.67;11.15;;;;;;;-1.59;82.89;96383.56;5035041;28;20028;-78
2023/01/18 04:37:33;;;;;;;28.02;12.70;;;;;;;-1.65;79.56;96384.50;5061600;28;20037;-78
2023/01/18 04:39:59;;;;;;;20.17;11.80;;;;;;;-2.14;80.20;96379.81;5046074;28;20059;-78
2023/01/18 04:42:25;;;;;;;28.50;13.45;;;;;;;-2.46;80.33;96370.75;5063670;28;20032;-78
2023/01/18 04:44:51;;;;;;;28.65;12.88;;;;;;;-2.54;81.53;96369.28;5063053;28;20081;-79
2023/01/18 04:47:17;;;;;;;27.25;12.77;;;;;;;-1.00;82.24;96379.66;5068530;28;20032;-78
2023/01/18 04:49:43;;;;;;;22.20;11.43;;;;;;;-0.66;79.92;96366.59;5074336;28;20032;-78
2023/01/18 04:52:08;;;;;;;18.83;10.63;;;;;;;-0.13;78.60;96377.34;5013656;28;20063;-78
2023/01/18 04:54:34;;;;;;;18.80;10.93;;;;;;;0.00;76.73;96372.56;5064876;28;20222;-78
2023/01/18 04:56:59;;;;;;;20.83;12.68;;;;;;;-0.17;75.41;96363.94;5061711;28;20192;-78
2023/01/18 04:59:25;;;;;;;24.40;13.20;;;;;;;-1.56;76.95;96366.63;5056233;28;20400;-78
2023/01/18 05:01:50;;;;;;;21.63;13.55;;;;;;;-2.34;80.18;96372.31;5046503;28;20107;-78
2023/01/18 05:04:15;;;;;;;29.95;14.85;;;;;;;-2.50;80.54;96375.63;5027126;28;20082;-78
2023/01/18 05:06:41;;;;;;;49.50;21.83;;;;;;;-3.15;83.05;96377.47;5043321;28;20052;-78
2023/01/18 05:09:10;;;;;;;47.47;20.70;;;;;;;-2.74;83.09;96383.66;5056492;28;20058;-78
2023/01/18 05:11:35;;;;;;;53.97;22.33;;;;;;;-2.83;82.11;96382.41;5049277;28;20040;-78
2023/01/18 05:14:00;;;;;;;25.45;12.45;;;;;;;-2.41;81.92;96389.94;5043054;28;20032;-79
2023/01/18 05:16:26;;;;;;;23.35;11.77;;;;;;;-1.40;82.35;96393.84;5042883;28;20041;-78
2023/01/18 05:18:52;;;;;;;22.35;11.30;;;;;;;-0.91;80.07;96403.63;5044623;28;20036;-79
2023/01/18 05:21:17;;;;;;;32.65;18.17;;;;;;;-1.88;78.79;96405.44;5041498;28;20040;-78
2023/01/18 05:23:43;;;;;;;24.80;13.68;;;;;;;-2.27;79.32;96400.94;5044082;28;20033;-78
2023/01/18 05:26:14;;;;;;;23.23;12.52;;;;;;;-0.97;80.61;96401.97;5046256;28;20040;-78
2023/01/18 05:28:41;;;;;;;28.73;12.65;;;;;;;-0.45;78.20;96408.59;5064723;28;20185;-79
2023/01/18 05:31:07;;;;;;;22.83;12.35;;;;;;;-0.52;77.55;96407.16;5037281;28;20436;-79
2023/01/18 05:33:32;;;;;;;27.90;13.52;;;;;;;-0.93;78.05;96424.03;5056752;28;20338;-79
2023/01/18 05:35:57;;;;;;;22.65;12.77;;;;;;;-0.45;78.13;96426.94;5049655;28;20092;-79
2023/01/18 05:38:23;;;;;;;26.02;13.43;;;;;;;-0.14;76.77;96408.03;5069916;28;20036;-79
2023/01/18 05:40:51;;;;;;;21.52;13.80;;;;;;;-0.06;75.97;96418.09;5033640;28;20032;-79
2023/01/18 05:43:18;;;;;;;22.65;12.43;;;;;;;-0.07;75.40;96432.22;5061057;28;20044;-78
2023/01/18 05:45:43;;;;;;;26.55;14.10;;;;;;;-1.47;76.60;96432.41;5070553;28;20365;-78
2023/01/18 05:48:10;;;;;;;24.40;12.60;;;;;;;-1.79;77.52;96440.66;5049728;28;20035;-78
2023/01/18 05:50:42;;;;;;;22.63;12.75;;;;;;;-0.66;78.44;96445.19;5074757;28;20029;-78
2023/01/18 05:53:07;;;;;;;24.83;12.40;;;;;;;-0.20;77.30;96437.03;5054003;28;20037;-79
2023/01/18 05:55:33;;;;;;;21.05;12.07;;;;;;;-0.02;75.40;96442.78;5056644;28;20036;-79
2023/01/18 05:57:58;;;;;;;21.42;12.05;;;;;;;-0.01;75.12;96451.44;5052465;28;20051;-79
2023/01/18 06:00:24;;;;;;;20.80;10.60;;;;;;;-0.07;76.07;96434.84;5047170;28;20480;-79
2023/01/18 06:02:51;;;;;;;20.80;11.63;;;;;;;-0.09;74.79;96447.41;5046885;28;20071;-79
2023/01/18 06:05:16;;;;;;;22.67;10.77;;;;;;;-0.05;76.35;96440.66;5072699;28;20122;-79
2023/01/18 06:07:41;;;;;;;16.95;10.23;;;;;;;-0.01;75.43;96449.63;5037639;28;20131;-79
2023/01/18 06:10:08;;;;;;;24.80;11.02;;;;;;;0.11;74.80;96461.84;5055293;28;20057;-79
2023/01/18 06:12:33;;;;;;;23.10;12.00;;;;;;;0.24;75.05;96466.75;5062561;28;20025;-79
2023/01/18 06:14:59;;;;;;;18.52;10.38;;;;;;;0.19;74.83;96464.06;5067416;28;20036;-78
2023/01/18 06:17:25;;;;;;;18.40;10.88;;;;;;;0.06;74.78;96459.16;5054832;28;20039;-78
2023/01/18 06:19:50;;;;;;;18.45;10.40;;;;;;;0.12;74.51;96468.66;5062330;28;20108;-78
2023/01/18 06:22:16;;;;;;;18.25;9.73;;;;;;;-0.21;75.70;96475.53;5040334;28;20111;-78
2023/01/18 06:24:41;;;;;;;19.77;10.68;;;;;;;-1.70;76.83;96473.28;5061775;28;20031;-78
2023/01/18 06:27:07;;;;;;;19.30;10.63;;;;;;;-1.73;78.92;96478.97;5030645;28;20588;-78
2023/01/18 06:29:32;;;;;;;17.23;10.38;;;;;;;-0.67;78.24;96462.72;5061502;28;20032;-78
2023/01/18 06:31:57;;;;;;;14.75;9.65;;;;;;;-0.28;76.49;96474.88;5047440;28;20370;-79
2023/01/18 06:34:23;;;;;;;14.57;9.23;;;;;;;-0.79;76.38;96462.75;5049651;28;20033;-78
2023/01/18 06:36:48;;;;;;;16.98;11.15;;;;;;;-0.94;77.57;96472.19;5060912;28;20092;-78
2023/01/18 06:39:14;;;;;;;23.10;10.30;;;;;;;-0.21;76.15;96485.22;5040392;28;20085;-79
2023/01/18 06:41:39;;;;;;;15.40;9.38;;;;;;;-0.03;75.28;96491.03;5057329;28;20036;-78
2023/01/18 06:44:04;;;;;;;24.45;10.57;;;;;;;0.01;75.31;96491.34;5048476;28;20472;-79
2023/01/18 06:46:31;;;;;;;16.88;9.98;;;;;;;-1.33;75.78;96493.94;5065670;28;20060;-79
2023/01/18 06:48:56;;;;;;;19.02;9.73;;;;;;;-1.42;76.32;96495.31;5041907;28;20033;-79
2023/01/18 06:51:22;;;;;;;14.68;8.57;;;;;;;-1.24;78.16;96501.16;5062203;28;20036;-78
2023/01/18 06:53:48;;;;;;;18.02;9.65;;;;;;;-0.48;76.70;96497.34;5072170;28;20036;-78
2023/01/18 06:56:15;;;;;;;19.52;9.10;;;;;;;-0.12;74.96;96505.56;5051110;28;20108;-78
2023/01/18 06:58:41;;;;;;;19.83;11.93;;;;;;;-0.72;74.73;96520.22;5048959;28;20032;-78
2023/01/18 07:01:07;;;;;;;18.02;10.32;;;;;;;-1.60;77.37;96523.19;5066611;28;20086;-78
2023/01/18 07:03:33;;;;;;;20.75;9.75;;;;;;;-0.62;76.80;96517.81;5065350;28;20029;-79
2023/01/18 07:06:01;;;;;;;16.65;10.00;;;;;;;-0.58;76.56;96523.34;5062464;28;20036;-78
2023/01/18 07:08:31;;;;;;;24.20;11.63;;;;;;;-2.00;77.11;96524.09;5048423;28;20066;-78
2023/01/18 07:10:58;;;;;;;19.55;10.80;;;;;;;-2.27;78.87;96536.75;5070362;28;20036;-78
2023/01/18 07:13:24;;;;;;;16.95;9.93;;;;;;;-1.65;79.66;96530.91;5052240;28;20387;-79
2023/01/18 07:15:55;;;;;;;20.88;11.93;;;;;;;-1.48;77.49;96540.66;5070678;28;20028;-79
2023/01/18 07:18:21;;;;;;;24.05;11.60;;;;;;;-2.40;78.00;96544.78;5053991;28;20043;-78
2023/01/18 07:20:55;;;;;;;20.17;11.75;;;;;;;-2.52;79.22;96544.78;5061284;28;20044;-78
2023/01/18 07:23:20;;;;;;;18.90;11.00;;;;;;;-2.87;79.11;96550.88;5071524;28;20540;-78
2023/01/18 07:25:46;;;;;;;27.02;13.52;;;;;;;-3.06;80.37;96560.56;5059927;28;20119;-78
2023/01/18 07:28:12;;;;;;;22.02;12.48;;;;;;;-3.00;81.11;96564.09;5068883;28;20119;-78
2023/01/18 07:30:37;;;;;;;21.55;10.82;;;;;;;-2.87;80.99;96551.69;5053924;28;20416;-78
2023/01/18 07:33:02;;;;;;;21.05;11.85;;;;;;;-2.79;81.09;96563.63;5037487;28;20040;-78
2023/01/18 07:35:28;;;;;;;23.63;12.50;;;;;;;-2.43;81.17;96558.31;5058348;28;20035;-78
2023/01/18 07:37:53;;;;;;;23.75;10.80;;;;;;;-1.22;80.37;96569.00;5047178;28;20055;-78
2023/01/18 07:40:20;;;;;;;17.85;10.10;;;;;;;-0.82;77.60;96564.56;5046251;28;20051;-79
2023/01/18 07:42:48;;;;;;;19.70;10.82;;;;;;;-1.90;76.50;96574.00;5073218;28;20033;-79
2023/01/18 07:45:14;;;;;;;26.42;11.15;;;;;;;-2.73;79.15;96557.53;5073408;28;20082;-78
2023/01/18 07:47:40;;;;;;;23.05;10.90;;;;;;;-2.72;79.97;96569.56;5056083;28;20032;-78
2023/01/18 07:50:06;;;;;;;20.02;11.35;;;;;;;-2.86;80.59;96561.09;5064078;28;20121;-78
2023/01/18 07:52:31;;;;;;;25.23;11.98;;;;;;;-3.06;80.96;96592.63;5045853;28;20044;-78
2023/01/18 07:54:57;;;;;;;22.40;12.60;;;;;;;-3.23;81.78;96594.22;5037884;28;20028;-78
2023/01/18 07:57:22;;;;;;;23.77;12.75;;;;;;;-3.28;81.63;96599.31;5046872;28;20036;-78
2023/01/18 07:59:48;;;;;;;20.50;12.20;;;;;;;-3.42;81.85;96597.84;5049933;28;20037;-78
2023/01/18 08:02:13;;;;;;;25.48;13.30;;;;;;;-3.73;84.10;96607.59;5068676;28;20040;-78
2023/01/18 08:04:39;;;;;;;26.60;13.70;;;;;;;-3.52;83.90;96610.59;5033038;28;20033;-78
2023/01/18 08:07:05;;;;;;;23.92;13.52;;;;;;;-3.39;83.42;96610.47;5049936;28;20051;-79
2023/01/18 08:09:32;;;;;;;21.77;13.25;;;;;;;-3.06;83.61;96605.69;5044305;28;20556;-78
2023/01/18 08:11:58;;;;;;;20.17;10.52;;;;;;;-2.79;83.13;96610.59;5070253;28;20020;-80
2023/01/18 08:14:24;;;;;;;19.35;9.65;;;;;;;-2.45;82.62;96600.34;5060747;28;20040;-79
2023/01/18 08:16:49;;;;;;;15.75;9.95;;;;;;;-1.22;81.52;96603.00;5045903;28;20485;-79
2023/01/18 08:19:15;;;;;;;27.38;14.90;;;;;;;-1.83;79.46;96616.50;5067182;28;20039;-79
2023/01/18 08:21:40;;;;;;;26.55;14.38;;;;;;;-2.67;81.91;96633.16;5033849;28;20377;-79
2023/01/18 08:24:06;;;;;;;24.92;12.82;;;;;;;-3.26;83.99;96623.38;5071096;28;20408;-79
2023/01/18 08:26:33;;;;;;;27.55;14.57;;;;;;;-2.99;84.11;96626.47;5051616;28;20553;-78
2023/01/18 08:28:59;;;;;;;29.05;16.25;;;;;;;-3.06;83.84;96626.56;5035108;28;20059;-79
2023/01/18 08:31:24;;;;;;;37.95;18.25;;;;;;;-3.19;84.52;96629.28;5059121;28;20059;-79
2023/01/18 08:33:49;;;;;;;32.17;17.90;;;;;;;-2.98;84.96;96648.16;5048705;28;20085;-79
2023/01/18 08:36:17;;;;;;;19.58;12.10;;;;;;;-2.09;85.82;96643.03;5071922;28;20669;-79
2023/01/18 08:38:47;;;;;;;30.13;16.70;;;;;;;-2.14;83.33;96638.47;5063612;28;20039;-79
2023/01/18 08:41:13;;;;;;;30.27;15.07;;;;;;;-2.30;83.46;96646.94;5051295;28;20144;-79
2023/01/18 08:43:38;;;;;;;25.08;14.63;;;;;;;-2.47;84.46;96648.56;5049808;28;20498;-79
2023/01/18 08:46:03;;;;;;;26.02;15.38;;;;;;;-2.57;84.66;96659.53;5028463;28;20041;-79
2023/01/18 08:48:29;;;;;;;34.72;16.38;;;;;;;-2.69;84.91;96661.28;5064452;28;20128;-78
2023/01/18 08:50:59;;;;;;;29.50;14.20;;;;;;;-2.56;85.35;96647.28;5038797;28;20481;-79
2023/01/18 08:53:24;;;;;;;32.92;15.85;;;;;;;-2.38;85.85;96663.69;5039742;28;20028;-79
2023/01/18 08:55:49;;;;;;;25.05;12.52;;;;;;;-2.12;86.51;96661.78;5047498;28;20032;-78
2023/01/18 08:58:15;;;;;;;26.63;13.85;;;;;;;-2.00;86.10;96658.16;5046075;28;20082;-79
2023/01/18 09:00:40;;;;;;;29.92;15.18;;;;;;;-1.93;85.32;96656.25;5044072;28;20053;-79
2023/01/18 09:03:06;;;;;;;29.20;15.07;;;;;;;-2.21;85.39;96663.91;5023315;28;20497;-79
2023/01/18 09:05:34;;;;;;;38.20;18.88;;;;;;;-2.61;86.80;96668.00;5080012;28;20112;-78
2023/01/18 09:08:00;;;;;;;26.25;15.00;;;;;;;-2.74;87.84;96671.59;5067890;28;20052;-79
2023/01/18 09:10:26;;;;;;;24.23;13.40;;;;;;;-2.85;88.90;96668.88;5067130;28;20039;-79
2023/01/18 09:12:52;;;;;;;30.77;14.57;;;;;;;-2.44;88.12;96671.63;5060996;28;20029;-78
2023/01/18 09:15:21;;;;;;;28.30;15.95;;;;;;;-2.08;88.09;96675.97;5033495;28;20384;-79
2023/01/18 09:17:46;;;;;;;35.38;15.32;;;;;;;-2.37;87.65;96680.97;5044469;28;20057;-79
2023/01/18 09:20:12;;;;;;;30.05;15.80;;;;;;;-2.45;89.41;96683.91;5033054;28;20064;-79
2023/01/18 09:22:38;;;;;;;25.08;13.75;;;;;;;-1.29;87.38;96686.84;5048323;28;20039;-79
2023/01/18 09:25:04;;;;;;;24.42;13.65;;;;;;;-0.50;83.62;96682.81;5051067;28;20032;-79
2023/01/18 09:27:30;;;;;;;28.10;14.82;;;;;;;-0.19;81.30;96696.25;5075114;28;20060;-79
2023/01/18 09:29:56;;;;;;;32.15;18.13;;;;;;;-0.16;80.95;96693.19;5079889;28;20119;-79
2023/01/18 09:32:21;;;;;;;29.20;14.07;;;;;;;-0.18;81.48;96702.31;5053205;28;20028;-79
2023/01/18 09:34:49;;;;;;;22.80;13.23;;;;;;;0.32;79.96;96711.09;5031601;28;20043;-79
2023/01/18 09:37:16;;;;;;;25.20;15.63;;;;;;;0.15;79.95;96704.22;5036223;28;20121;-79
2023/01/18 09:39:41;;;;;;;24.48;13.48;;;;;;;0.40;79.98;96713.34;5033011;28;20548;-79
2023/01/18 09:42:19;;;;;;;34.47;18.67;;;;;;;-0.82;82.87;96695.47;5046512;28;20124;-79
2023/01/18 09:44:47;;;;;;;25.40;14.63;;;;;;;-0.19;83.46;96716.41;5046242;28;20032;-79
2023/01/18 09:47:42;;;;;;;24.75;14.32;;;;;;;-0.08;82.66;96728.69;5071809;28;20028;-79
2023/01/18 09:50:17;;;;;;;29.15;15.45;;;;;;;-0.72;84.71;96734.19;5063581;28;20486;-78
2023/01/18 09:53:22;;;;;;;34.38;15.73;;;;;;;0.26;81.62;96732.22;5029255;28;20029;-79
2023/01/18 09:56:08;;;;;;;38.80;19.75;;;;;;;-0.78;84.09;96710.50;5059693;28;20025;-78
2023/01/18 09:58:45;;;;;;;32.13;16.60;;;;;;;-0.11;83.98;96740.44;5045803;28;20036;-79
2023/01/18 10:01:17;;;;;;;29.08;15.52;;;;;;;0.14;82.31;96734.91;5052012;28;20041;-79
2023/01/18 10:03:53;;;;;;;36.10;19.25;;;;;;;-0.49;83.88;96744.63;5082679;28;20032;-79
2023/01/18 10:06:25;;;;;;;38.83;21.27;;;;;;;-1.23;87.57;96727.81;5049926;28;20108;-79
2023/01/18 10:08:55;;;;;;;33.97;19.73;;;;;;;-1.11;88.61;96740.88;5052077;28;20481;-78
2023/01/18 10:11:30;;;;;;;30.80;17.25;;;;;;;-1.02;88.68;96750.81;5066914;28;20024;-79
2023/01/18 10:14:20;;;;;;;32.25;16.95;;;;;;;0.16;83.96;96738.06;5065774;28;20428;-78
2023/01/18 10:16:55;;;;;;;38.75;21.63;;;;;;;-0.55;86.37;96738.50;5060537;28;20082;-79
2023/01/18 10:19:26;;;;;;;38.42;20.45;;;;;;;-0.86;88.62;96746.72;5071220;28;20105;-79
2023/01/18 10:22:05;;;;;;;45.70;21.90;;;;;;;-0.87;88.52;96737.25;5033042;28;20036;-79
2023/01/18 10:24:42;;;;;;;29.67;16.65;;;;;;;-0.17;86.97;96749.25;5081740;28;20020;-78
2023/01/18 10:27:28;;;;;;;32.72;17.95;;;;;;;0.02;85.29;96734.16;5042763;28;20079;-79
2023/01/18 10:30:01;;;;;;;32.58;17.80;;;;;;;0.65;82.84;96744.47;5037046;28;20511;-79
2023/01/18 10:32:29;;;;;;;39.45;20.45;;;;;;;0.81;81.22;96738.41;5069712;28;20389;-79
2023/01/18 10:34:54;;;;;;;33.25;17.98;;;;;;;0.77;81.94;96743.34;5076754;28;20036;-79
2023/01/18 10:37:36;;;;;;;42.55;21.20;;;;;;;0.58;81.43;96728.06;5048959;28;20031;-79
2023/01/18 10:40:06;;;;;;;40.58;21.83;;;;;;;0.62;81.70;96742.31;5041775;28;20028;-79
2023/01/18 10:42:39;;;;;;;45.53;23.85;;;;;;;-0.47;85.74;96739.97;5037712;28;20044;-78
2023/01/18 10:45:18;;;;;;;33.20;18.92;;;;;;;0.59;83.16;96748.03;5041797;28;20032;-79
2023/01/18 10:47:43;;;;;;;34.30;19.58;;;;;;;0.86;81.56;96751.63;5051856;28;20029;-79
2023/01/18 10:50:18;;;;;;;30.30;17.48;;;;;;;1.04;80.76;96747.97;5035375;28;20036;-79
2023/01/18 10:52:44;;;;;;;43.42;22.48;;;;;;;0.03;84.48;96755.91;5067470;28;20468;-79
2023/01/18 10:55:16;;;;;;;34.25;18.05;;;;;;;0.05;86.54;96736.28;5048263;28;20032;-79
2023/01/18 10:57:53;;;;;;;35.50;19.30;;;;;;;0.61;83.33;96745.97;5042832;28;20497;-79
2023/01/18 11:00:33;;;;;;;34.35;19.95;;;;;;;0.87;81.82;96734.84;5039104;28;20086;-79
2023/01/18 11:03:01;;;;;;;34.70;18.60;;;;;;;0.86;82.18;96741.13;5047674;28;20431;-79
2023/01/18 11:05:33;;;;;;;35.70;19.48;;;;;;;1.18;81.41;96754.50;5071071;28;20032;-79
2023/01/18 11:08:11;;;;;;;33.08;19.50;;;;;;;1.08;81.92;96760.38;5033383;28;20060;-79
2023/01/18 11:10:37;;;;;;;31.58;18.08;;;;;;;1.23;81.08;96771.13;5068161;28;20043;-79
2023/01/18 11:13:21;;;;;;;34.90;19.80;;;;;;;1.12;80.61;96764.13;5061992;28;20021;-79
2023/01/18 11:15:46;;;;;;;37.42;19.35;;;;;;;1.10;81.60;96760.94;5034639;28;20119;-79
2023/01/18 11:18:12;;;;;;;31.10;17.38;;;;;;;0.92;81.82;96747.28;5032620;28;20032;-79
2023/01/18 11:20:37;;;;;;;32.40;17.95;;;;;;;1.36;80.59;96770.00;5045996;28;20044;-79
2023/01/18 11:23:16;;;;;;;30.85;17.73;;;;;;;1.36;80.61;96772.63;5073300;28;20484;-79
2023/01/18 11:25:46;;;;;;;35.83;19.25;;;;;;;1.08;81.85;96770.91;5064805;28;20421;-79
2023/01/18 11:28:18;;;;;;;29.70;17.08;;;;;;;1.24;81.44;96778.00;5080148;28;20475;-79
2023/01/18 11:31:09;;;;;;;41.22;19.80;;;;;;;0.59;85.21;96782.16;5054449;28;20089;-79
2023/01/18 11:33:39;;;;;;;31.08;17.52;;;;;;;0.33;85.66;96772.25;5060139;28;20492;-78
2023/01/18 11:36:05;;;;;;;32.60;18.48;;;;;;;0.05;86.75;96777.44;5063427;28;20093;-78
2023/01/18 11:38:33;;;;;;;24.20;12.27;;;;;;;0.32;84.83;96774.06;5061725;28;20459;-79
2023/01/18 11:41:25;;;;;;;21.67;12.13;;;;;;;0.82;84.71;96791.72;5068048;28;20032;-78
2023/01/18 11:44:07;;;;;;;25.13;13.35;;;;;;;0.59;83.21;96777.69;5054924;28;20048;-78
2023/01/18 11:46:41;;;;;;;27.13;12.20;;;;;;;0.31;83.56;96793.44;5068776;28;20050;-78
2023/01/18 11:49:45;;;;;;;17.65;10.63;;;;;;;1.10;83.56;96783.78;5068165;28;20499;-79
2023/01/18 11:52:41;;;;;;;20.90;12.43;;;;;;;0.87;84.34;96776.06;5054422;28;20586;-79
2023/01/18 11:55:20;;;;;;;22.77;12.52;;;;;;;1.28;83.49;96786.97;5062907;28;20433;-78
2023/01/18 11:57:45;;;;;;;17.75;11.02;;;;;;;1.51;82.18;96789.41;5070339;28;20040;-79
2023/01/18 12:00:15;;;;;;;19.55;12.30;;;;;;;1.38;82.78;96789.75;5067043;28;20036;-79
2023/01/18 12:03:12;;;;;;;14.52;9.77;;;;;;;0.53;82.44;96790.97;5049264;28;20028;-79
2023/01/18 12:05:52;;;;;;;19.00;10.55;;;;;;;1.17;82.72;96779.19;5045477;28;20036;-79